• Join FlightAware (Why Join?)
  • Login
  • US Flag 
04:17AM EDT


 

Airport Tracker/Info


-or-


 

Live Flight TrackerFlight Track Log ✈ SWA554 ✈ 08-Apr-2013 ✈ KBWI - KMHT

Flight Track Log - Related Links

Times and Time Zones

All times are in EDT time to prevent confusion due to time zone crossing. See the SWA554 flight status page for this flight to view local times or setup timezone preferences in your user account.

Time Position Orientation Groundspeed Altitude Reporting Facility
EDT Latitude Longitude Course Direction KTS MPH feet Rate Location/Type
05:16PM 39.1500 -76.6500 96° East 145 167 1,300  Level Potomac TRACON
05:18PM 39.1431 -76.5603 96° East 216 249 4,300 2,460 Climbing Washington Center
05:19PM 39.1458 -76.4561 88° East 239 275 7,700 3,300 Climbing Washington Center
05:20PM 39.1506 -76.3464 87° East 284 327 10,900 3,120 Climbing Washington Center
05:21PM 39.1556 -76.2153 87° East 329 379 14,000 3,120 Climbing Washington Center
05:22PM 39.1686 -76.0736 83° East 369 425 17,200 3,000 Climbing Washington Center
05:23PM 39.1858 -75.9317 81° East 389 448 20,000 2,760 Climbing Washington Center
05:24PM 39.2444 -75.8086 58° Northeast 395 455 22,800 2,580 Climbing Washington Center
05:26PM 39.4275 -75.5794 44° Northeast 456 525 28,000 2,280 Climbing New York Center
05:27PM 39.5136 -75.4642 46° Northeast 443 510 29,800 1,680 Climbing New York Center
05:28PM 39.6036 -75.3489 45° Northeast 450 518 31,500 1,800 Climbing New York Center
05:29PM 39.6917 -75.2278 47° Northeast 460 529 33,500 1,800 Climbing New York Center
05:30PM 39.7686 -75.1164 48° Northeast 460 529 35,100 1,620 Climbing New York Center
05:31PM 39.8547 -74.9892 49° Northeast 460 529 36,800 900 Climbing New York Center
05:32PM 39.9467 -74.8594 47° Northeast 455 524 37,000 60 Climbing New York Center
05:33PM 40.0378 -74.7564 41° Northeast 433 498 37,000  Level New York Center
05:34PM 40.1433 -74.7189 15° North 416 479 37,000  Level New York Center
05:35PM 40.2597 -74.6711 17° North 425 489 37,000  Level New York Center
05:36PM 40.3756 -74.6342 14° North 430 495 37,000  Level New York Center
05:37PM 40.4914 -74.5942 15° North 430 495 37,000  Level New York Center
05:38PM 40.6072 -74.5542 15° North 430 495 37,000  Level New York Center
05:40PM 40.8167 -74.4806 15° North 437 503 37,000  Level Boston Center
05:40PM 40.9364 -74.4431 13° North 437 503 37,000  Level Boston Center
05:41PM 41.0494 -74.4025 15° North 432 497 37,000  Level Boston Center
05:42PM 41.1564 -74.3728 12° North 432 497 37,000  Level Boston Center
05:43PM 41.2864 -74.3214 17° North 432 497 37,000  Level Boston Center
05:44PM 41.4039 -74.2806 15° North 432 497 37,000 -240 Level Boston Center
05:46PM 41.5211 -74.2394 15° North 432 497 36,600 -660 Descending Boston Center
05:47PM 41.6258 -74.2064 13° North 432 497 35,700 -1,020 Descending Boston Center
05:47PM 41.7475 -74.1625 15° North 432 497 34,700 -900 Descending Boston Center
05:48PM 41.8397 -74.1344 13° North 432 497 34,000 -900 Descending Boston Center
05:50PM 41.9683 -74.0317 31° Northeast 431 496 32,900 -1,080 Descending Boston Center
05:50PM 42.0328 -73.8711 62° Northeast 437 503 31,900 -1,020 Descending Boston Center
05:51PM 42.0994 -73.7106 61° Northeast 456 525 31,000 -1,020 Descending Boston Center
05:53PM 42.1658 -73.5492 61° Northeast 480 552 29,900 -1,800 Descending Boston Center
05:54PM 42.2111 -73.3764 70° East 485 558 27,400 -2,520 Descending Boston Center
05:54PM 42.2394 -73.2083 77° East 471 542 25,000 -2,160 Descending Boston Center
05:55PM 42.3031 -73.0436 62° Northeast 456 525 23,200 -1,440 Descending Boston Center
05:57PM 42.3639 -72.9178 57° Northeast 450 518 22,200 -1,020 Descending Boston Center
05:58PM 42.4250 -72.7806 59° Northeast 436 502 21,200 -1,320 Descending Boston Center
05:59PM 42.4836 -72.6542 58° Northeast 411 473 19,600 -1,800 Descending Boston Center
05:59PM 42.5483 -72.5247 56° Northeast 384 442 17,700 -1,800 Descending Boston Center
06:00PM 42.5922 -72.4289 58° Northeast 379 436 16,100 -1,920 Descending Boston Center
06:02PM 42.6544 -72.2906 59° Northeast 362 417 13,800 -2,100 Descending Boston Center
06:02PM 42.7044 -72.1772 59° Northeast 355 409 11,900 -1,500 Descending Boston Center
06:03PM 42.7164 -72.0500 83° East 337 388 10,900 -1,200 Descending Boston Center
06:04PM 42.7244 -71.9314 85° East 325 374 9,500 -1,500 Descending Boston Center
06:05PM 42.7322 -71.8153 85° East 319 367 7,900 -1,380 Descending Boston Center
06:06PM 42.7378 -71.7022 86° East 306 352 6,800 -1,140 Descending Boston Center
06:08PM 42.7453 -71.5947 85° East 288 331 5,700 -1,140 Descending Boston Center
06:09PM 42.7508 -71.4928 86° East 280 322 4,600 -1,020 Descending Boston Center
06:09PM 42.7603 -71.4022 82° East 252 290 3,700 -960 Descending Boston Center
06:10PM 42.7956 -71.3706 33° Northeast 184 212 2,800 -960 Descending Boston Center
06:12PM 42.8500 -71.3867 348° North 157 181 1,800 -900 Descending Boston Center
06:12PM 42.8856 -71.4058 338° Northwest 151 174 1,100 -720 Descending Boston Center
06:14PM 42.9169 -71.4253 336° Northwest 139 160 400 3,900 Descending Boston Center
06:15PM 42.9589 -71.4500 337° Northwest 139 160 9,000 4,320 Climbing Boston Center
06:15PM 42.9944 -71.4692 338° Northwest 139 160 9,000  Level Boston Center